Time;durP1;ratioP1;P1;durP2;ratioP2;P2;SDS_P1;SDS_P2;PMS_P1;PMS_P2;Temp;Humidity;BMP_temperature;BMP_pressure;BME280_temperature;BME280_humidity;BME280_pressure;Samples;Min_cycle;Max_cycle;Signal;HPM_P1;HPM_P2
2021/03/13 00:00:08;;;;;;;2.47;0.68;;;7.80;96.50;;;;;;5051671;28;20139;-77
2021/03/13 00:02:36;;;;;;;2.05;0.60;;;7.90;96.40;;;;;;5051423;28;20052;-77
2021/03/13 00:05:03;;;;;;;2.63;0.50;;;7.90;96.10;;;;;;5051734;28;20161;-76
2021/03/13 00:07:30;;;;;;;0.98;0.55;;;7.90;96.40;;;;;;5051851;28;20608;-76
2021/03/13 00:09:56;;;;;;;1.02;0.30;;;7.90;96.40;;;;;;5071551;28;20147;-77
2021/03/13 00:12:23;;;;;;;2.00;0.43;;;7.90;96.30;;;;;;5060778;28;20128;-77
2021/03/13 00:14:50;;;;;;;2.03;0.38;;;8.00;96.00;;;;;;5051190;28;20139;-76
2021/03/13 00:17:16;;;;;;;1.08;0.30;;;7.90;95.90;;;;;;5055005;28;20124;-76
2021/03/13 00:19:44;;;;;;;1.23;0.38;;;8.00;96.00;;;;;;5077745;28;20140;-76
2021/03/13 00:22:11;;;;;;;1.58;0.70;;;8.00;96.10;;;;;;5082685;28;20068;-76
2021/03/13 00:24:37;;;;;;;1.23;0.35;;;8.00;95.90;;;;;;5072744;28;20271;-76
2021/03/13 00:27:04;;;;;;;0.60;0.30;;;7.90;96.00;;;;;;5070835;28;20155;-77
2021/03/13 00:29:31;;;;;;;0.82;0.28;;;8.00;95.70;;;;;;5070421;28;20127;-77
2021/03/13 00:31:58;;;;;;;1.48;0.38;;;8.00;95.90;;;;;;5071140;28;20049;-77
2021/03/13 00:34:24;;;;;;;1.15;0.30;;;8.00;95.70;;;;;;5070404;28;20132;-78
2021/03/13 00:36:52;;;;;;;5.45;0.70;;;8.00;95.90;;;;;;5071046;28;20079;-76
2021/03/13 00:39:18;;;;;;;0.63;0.30;;;7.90;95.90;;;;;;5055716;28;20056;-78
2021/03/13 00:41:45;;;;;;;1.05;0.40;;;7.80;95.90;;;;;;5051046;28;20081;-76
2021/03/13 00:44:12;;;;;;;0.90;0.32;;;7.80;96.10;;;;;;5051099;28;20112;-75
2021/03/13 00:46:40;;;;;;;1.77;0.60;;;7.90;96.10;;;;;;5057348;28;20080;-77
2021/03/13 00:49:07;;;;;;;1.40;0.40;;;7.90;96.10;;;;;;5063226;28;20437;-76
2021/03/13 00:51:34;;;;;;;1.77;0.43;;;7.80;96.20;;;;;;5070948;28;20131;-76
2021/03/13 00:54:01;;;;;;;0.77;0.30;;;7.80;96.30;;;;;;5070375;28;20493;-76
2021/03/13 00:56:28;;;;;;;1.65;0.55;;;7.80;96.50;;;;;;5070388;28;20131;-76
2021/03/13 00:58:55;;;;;;;1.80;0.70;;;7.80;96.50;;;;;;5068354;28;20051;-76
2021/03/13 01:01:21;;;;;;;3.88;0.90;;;7.90;96.30;;;;;;5070804;28;20486;-77
2021/03/13 01:03:48;;;;;;;2.20;0.75;;;7.90;96.70;;;;;;5070803;28;20187;-76
2021/03/13 01:06:14;;;;;;;1.23;0.47;;;7.80;96.30;;;;;;5078761;28;20529;-77
2021/03/13 01:08:41;;;;;;;1.67;0.50;;;7.80;96.30;;;;;;5071588;28;20076;-76
2021/03/13 01:11:09;;;;;;;1.77;0.40;;;7.80;96.50;;;;;;5059331;28;20044;-77
2021/03/13 01:13:36;;;;;;;1.40;0.45;;;7.90;96.10;;;;;;5070587;28;20131;-77
2021/03/13 01:16:03;;;;;;;2.15;0.65;;;7.90;96.30;;;;;;5070812;28;20451;-78
2021/03/13 01:18:30;;;;;;;2.38;0.60;;;7.80;96.40;;;;;;5064291;28;20139;-75
2021/03/13 01:20:57;;;;;;;1.63;0.57;;;7.90;96.00;;;;;;5049830;28;20136;-76
2021/03/13 01:23:23;;;;;;;2.78;0.60;;;7.90;95.90;;;;;;5050365;28;20140;-77
2021/03/13 01:25:50;;;;;;;1.83;0.55;;;8.00;95.90;;;;;;5058661;28;20139;-77
2021/03/13 01:28:17;;;;;;;3.50;0.68;;;8.00;96.00;;;;;;5065462;28;20060;-78
2021/03/13 01:30:44;;;;;;;2.20;0.60;;;7.90;96.20;;;;;;5050865;28;20581;-78
2021/03/13 01:33:10;;;;;;;2.30;0.60;;;8.00;96.20;;;;;;5050202;28;20135;-78
2021/03/13 01:35:37;;;;;;;2.58;0.60;;;7.70;96.30;;;;;;5050658;28;20131;-76
2021/03/13 01:38:03;;;;;;;2.63;0.73;;;7.80;96.40;;;;;;5049533;28;20491;-76
2021/03/13 01:40:30;;;;;;;1.60;0.50;;;7.70;96.70;;;;;;5053967;28;20044;-76
2021/03/13 01:42:57;;;;;;;1.98;0.60;;;7.90;97.00;;;;;;5053139;28;20132;-76
2021/03/13 01:45:24;;;;;;;1.50;0.47;;;7.80;97.40;;;;;;5049788;28;20113;-76
2021/03/13 01:47:54;;;;;;;1.55;0.43;;;7.80;97.40;;;;;;5055227;28;20119;-76
2021/03/13 01:50:21;;;;;;;2.10;0.70;;;7.70;97.90;;;;;;5070348;28;20052;-77
2021/03/13 01:52:49;;;;;;;2.17;0.60;;;7.70;98.10;;;;;;5069447;28;20135;-77
2021/03/13 01:55:17;;;;;;;1.63;0.60;;;7.60;97.90;;;;;;5060807;28;20064;-76
2021/03/13 01:57:44;;;;;;;2.58;0.60;;;7.60;97.70;;;;;;5050216;28;20049;-78
2021/03/13 02:00:14;;;;;;;2.72;0.82;;;7.60;97.50;;;;;;5049884;28;20133;-76
2021/03/13 02:02:42;;;;;;;2.45;0.70;;;7.60;97.30;;;;;;5050177;28;20505;-76
2021/03/13 02:05:16;;;;;;;3.80;0.80;;;7.60;97.00;;;;;;5049809;28;20517;-74
2021/03/13 02:07:52;;;;;;;2.97;0.70;;;7.70;96.90;;;;;;5050555;28;20124;-75
2021/03/13 02:10:33;;;;;;;5.93;0.80;;;7.70;96.40;;;;;;5059937;28;20044;-74
2021/03/13 02:13:08;;;;;;;2.20;0.70;;;7.70;96.20;;;;;;5056819;28;20455;-77
2021/03/13 02:15:47;;;;;;;1.83;0.80;;;7.70;96.10;;;;;;5050448;28;20077;-77
2021/03/13 02:18:28;;;;;;;2.40;0.70;;;7.70;95.70;;;;;;5068129;28;20657;-77
2021/03/13 02:21:20;;;;;;;3.35;0.80;;;7.70;95.50;;;;;;5069746;28;20140;-77
2021/03/13 02:24:14;;;;;;;2.28;0.55;;;7.80;95.00;;;;;;5068121;28;20080;-77
2021/03/13 02:27:10;;;;;;;3.17;0.50;;;7.90;94.90;;;;;;5070003;28;20135;-77
2021/03/13 02:29:46;;;;;;;2.90;0.75;;;7.90;94.30;;;;;;5070238;28;20050;-77
2021/03/13 02:32:23;;;;;;;3.40;0.77;;;8.00;93.70;;;;;;5096032;28;20072;-78
2021/03/13 02:34:57;;;;;;;4.05;0.90;;;8.00;93.60;;;;;;5049795;28;20490;-77
2021/03/13 02:37:30;;;;;;;4.45;0.80;;;8.00;93.30;;;;;;5049632;28;20056;-76
2021/03/13 02:39:59;;;;;;;2.35;0.85;;;8.00;93.00;;;;;;5049639;28;20049;-75
2021/03/13 02:42:27;;;;;;;2.78;0.60;;;8.20;92.60;;;;;;5059413;28;20045;-76
2021/03/13 02:44:56;;;;;;;3.97;0.68;;;8.20;92.50;;;;;;5060527;28;20497;-76
2021/03/13 02:47:24;;;;;;;4.65;1.00;;;8.20;92.20;;;;;;5052572;28;20132;-76
2021/03/13 02:49:52;;;;;;;3.78;0.70;;;8.20;92.00;;;;;;5058579;28;20139;-75
2021/03/13 02:52:20;;;;;;;2.78;0.63;;;8.40;91.90;;;;;;5059630;28;20505;-75
2021/03/13 02:54:49;;;;;;;4.30;0.90;;;8.40;91.70;;;;;;5073406;28;20439;-75
2021/03/13 02:57:17;;;;;;;3.55;1.00;;;8.50;91.30;;;;;;5075338;28;20466;-75
2021/03/13 02:59:45;;;;;;;3.13;0.88;;;8.40;91.40;;;;;;5075723;28;20490;-75
2021/03/13 03:02:16;;;;;;;3.88;0.70;;;8.50;91.20;;;;;;5071715;28;20119;-76
2021/03/13 03:04:43;;;;;;;4.72;1.10;;;8.50;91.00;;;;;;5056543;28;20091;-75
2021/03/13 03:07:11;;;;;;;3.00;0.60;;;8.60;91.00;;;;;;5066772;28;20127;-75
2021/03/13 03:09:39;;;;;;;4.18;0.80;;;8.60;90.80;;;;;;5075961;28;20105;-76
2021/03/13 03:12:08;;;;;;;4.30;0.90;;;8.50;90.70;;;;;;5075244;28;20049;-76
2021/03/13 03:14:35;;;;;;;3.83;1.00;;;8.70;90.60;;;;;;5055803;28;20048;-78
2021/03/13 03:17:04;;;;;;;3.97;0.70;;;8.60;90.60;;;;;;5056025;28;20155;-77
2021/03/13 03:19:34;;;;;;;2.30;0.80;;;8.60;90.50;;;;;;5058908;28;20136;-77
2021/03/13 03:22:02;;;;;;;2.33;0.70;;;8.70;90.60;;;;;;5059070;28;20091;-77
2021/03/13 03:24:29;;;;;;;3.88;1.10;;;8.70;90.30;;;;;;5075863;28;20143;-77
2021/03/13 03:26:59;;;;;;;2.75;0.63;;;8.80;90.10;;;;;;5077325;28;20079;-78
2021/03/13 03:29:26;;;;;;;4.35;0.82;;;8.70;90.20;;;;;;5078677;28;20135;-77
2021/03/13 03:31:53;;;;;;;1.95;0.70;;;8.70;90.40;;;;;;5078327;28;20135;-77
2021/03/13 03:34:20;;;;;;;3.50;0.90;;;8.70;90.20;;;;;;5064367;28;20087;-78
2021/03/13 03:36:47;;;;;;;4.70;0.85;;;8.80;90.00;;;;;;5055353;28;20124;-78
2021/03/13 03:39:14;;;;;;;3.15;0.60;;;8.90;90.20;;;;;;5055174;28;20554;-79
2021/03/13 03:41:45;;;;;;;4.68;0.70;;;8.80;90.10;;;;;;5062395;28;20080;-76
2021/03/13 03:44:15;;;;;;;1.30;0.50;;;8.90;89.90;;;;;;5073347;28;20100;-78
2021/03/13 03:46:42;;;;;;;1.83;0.57;;;8.90;89.20;;;;;;5087296;28;20494;-77
2021/03/13 03:49:12;;;;;;;3.63;0.88;;;8.80;89.20;;;;;;5089690;28;20048;-77
2021/03/13 03:51:40;;;;;;;4.30;0.70;;;9.00;88.60;;;;;;5088820;28;20058;-77
2021/03/13 03:54:12;;;;;;;2.28;0.60;;;9.00;88.50;;;;;;5081010;28;20100;-77
2021/03/13 03:56:40;;;;;;;3.85;0.60;;;9.00;88.10;;;;;;5054871;28;20198;-76
2021/03/13 03:59:10;;;;;;;4.70;0.70;;;9.00;88.20;;;;;;5054581;28;20045;-76
2021/03/13 04:01:39;;;;;;;2.03;0.55;;;8.90;88.00;;;;;;5053997;28;20447;-78
2021/03/13 04:04:08;;;;;;;5.15;0.85;;;9.00;88.10;;;;;;5068454;28;20124;-77
2021/03/13 04:06:35;;;;;;;3.03;0.60;;;9.00;88.70;;;;;;5072770;28;20066;-76
2021/03/13 04:09:04;;;;;;;2.97;0.70;;;9.00;89.50;;;;;;5082506;28;20076;-76
2021/03/13 04:11:33;;;;;;;2.22;0.55;;;9.00;90.00;;;;;;5096042;28;20032;-76
2021/03/13 04:14:01;;;;;;;5.05;0.70;;;9.00;90.30;;;;;;5096224;28;20064;-77
2021/03/13 04:16:29;;;;;;;6.70;0.90;;;9.00;90.30;;;;;;5075264;28;20166;-77
2021/03/13 04:18:58;;;;;;;3.30;0.90;;;8.90;90.50;;;;;;5072312;28;20127;-75
2021/03/13 04:21:25;;;;;;;4.07;0.65;;;8.80;90.60;;;;;;5071923;28;20139;-77
2021/03/13 04:23:52;;;;;;;2.70;0.65;;;8.90;90.80;;;;;;5060467;28;20467;-77
2021/03/13 04:26:20;;;;;;;2.50;0.65;;;8.90;90.50;;;;;;5052341;28;20145;-77
2021/03/13 04:28:49;;;;;;;2.53;0.50;;;8.90;90.20;;;;;;5051940;28;20140;-77
2021/03/13 04:31:18;;;;;;;2.00;0.60;;;8.90;90.40;;;;;;5051652;28;20128;-76
2021/03/13 04:33:45;;;;;;;2.97;0.75;;;8.90;90.30;;;;;;5058577;28;20080;-75
2021/03/13 04:36:12;;;;;;;2.83;0.60;;;9.00;89.90;;;;;;5071170;28;20135;-76
2021/03/13 04:38:42;;;;;;;3.45;0.88;;;9.00;90.00;;;;;;5071582;28;20471;-77
2021/03/13 04:41:10;;;;;;;2.78;0.50;;;9.00;89.70;;;;;;5071802;28;20131;-77
2021/03/13 04:43:38;;;;;;;2.08;0.60;;;9.00;90.20;;;;;;5069297;28;20047;-76
2021/03/13 04:46:06;;;;;;;2.47;0.50;;;9.00;89.40;;;;;;5063798;28;20136;-76
2021/03/13 04:48:34;;;;;;;1.48;0.47;;;9.10;88.70;;;;;;5051784;28;20136;-77
2021/03/13 04:51:05;;;;;;;2.72;0.70;;;9.10;88.60;;;;;;5051630;28;20124;-76
2021/03/13 04:53:32;;;;;;;1.63;0.50;;;8.90;88.80;;;;;;5051255;28;20471;-77
2021/03/13 04:55:59;;;;;;;2.00;0.65;;;9.00;88.90;;;;;;5054854;28;20460;-76
2021/03/13 04:58:26;;;;;;;1.85;0.45;;;9.00;88.80;;;;;;5071447;28;20076;-76
2021/03/13 05:00:53;;;;;;;3.50;0.73;;;9.00;89.00;;;;;;5079628;28;20139;-77
2021/03/13 05:03:21;;;;;;;1.30;0.50;;;9.00;88.40;;;;;;5084203;28;20518;-77
2021/03/13 05:05:47;;;;;;;1.73;0.50;;;9.10;87.50;;;;;;5081399;28;20079;-76
2021/03/13 05:08:14;;;;;;;3.13;0.60;;;9.10;87.10;;;;;;5054550;28;20130;-76
2021/03/13 05:10:41;;;;;;;3.40;0.60;;;9.10;86.80;;;;;;5054408;28;20133;-77
2021/03/13 05:13:07;;;;;;;2.15;0.50;;;9.10;86.90;;;;;;5053927;28;20139;-78
2021/03/13 05:15:34;;;;;;;2.97;0.63;;;9.20;86.70;;;;;;5052481;28;20080;-77
2021/03/13 05:18:00;;;;;;;2.78;0.68;;;9.20;86.40;;;;;;5065931;28;20087;-77
2021/03/13 05:20:28;;;;;;;1.48;0.55;;;9.20;86.20;;;;;;5073535;28;20136;-77
2021/03/13 05:22:55;;;;;;;1.52;0.50;;;9.10;85.80;;;;;;5071209;28;20139;-78
2021/03/13 05:25:22;;;;;;;3.22;0.80;;;9.20;86.10;;;;;;5053998;28;20128;-77
2021/03/13 05:27:48;;;;;;;4.63;0.80;;;9.30;85.60;;;;;;5064468;28;20169;-75
2021/03/13 05:30:17;;;;;;;2.70;0.52;;;9.30;85.30;;;;;;5066774;28;20120;-77
2021/03/13 05:32:43;;;;;;;2.92;0.50;;;9.30;85.10;;;;;;5057260;28;20569;-77
2021/03/13 05:35:12;;;;;;;2.15;0.60;;;9.30;85.50;;;;;;5071893;28;20504;-76
2021/03/13 05:37:41;;;;;;;1.88;0.45;;;9.30;85.60;;;;;;5072161;28;20441;-77
2021/03/13 05:40:10;;;;;;;3.70;0.50;;;9.30;84.90;;;;;;5073647;28;20140;-78
2021/03/13 05:42:38;;;;;;;2.42;0.50;;;9.30;85.20;;;;;;5073640;28;20505;-77
2021/03/13 05:45:08;;;;;;;3.22;0.63;;;9.30;85.20;;;;;;5073993;28;20143;-76
2021/03/13 05:47:37;;;;;;;1.42;0.45;;;9.30;84.90;;;;;;5065640;28;20135;-77
2021/03/13 05:50:09;;;;;;;1.52;0.50;;;9.30;85.30;;;;;;5073997;28;20072;-77
2021/03/13 05:52:39;;;;;;;2.67;0.50;;;9.30;85.20;;;;;;5073849;28;20048;-76
2021/03/13 05:55:08;;;;;;;1.65;0.50;;;9.30;84.70;;;;;;5074164;28;20144;-76
2021/03/13 05:57:35;;;;;;;1.90;0.50;;;9.30;84.80;;;;;;5069549;28;20087;-75
2021/03/13 06:00:05;;;;;;;1.90;0.47;;;9.30;84.70;;;;;;5075934;28;20520;-76
2021/03/13 06:02:32;;;;;;;3.42;0.50;;;9.30;85.00;;;;;;5078352;28;20083;-78
2021/03/13 06:05:00;;;;;;;3.30;0.70;;;9.30;84.80;;;;;;5081357;28;20079;-78
2021/03/13 06:07:27;;;;;;;1.58;0.57;;;9.40;84.70;;;;;;5070518;28;20129;-76
2021/03/13 06:09:57;;;;;;;2.83;0.57;;;9.40;84.40;;;;;;5061302;28;20127;-78
2021/03/13 06:12:24;;;;;;;3.72;0.63;;;9.30;84.60;;;;;;5062061;28;20067;-77
2021/03/13 06:14:53;;;;;;;3.00;0.50;;;9.30;84.40;;;;;;5077561;28;20083;-77
2021/03/13 06:17:22;;;;;;;1.75;0.50;;;9.40;84.30;;;;;;5085000;28;20317;-77
2021/03/13 06:19:50;;;;;;;2.28;0.60;;;9.40;83.80;;;;;;5066155;28;20487;-78
2021/03/13 06:22:35;;;;;;;2.17;0.60;;;9.30;84.30;;;;;;5065056;28;20044;-76
2021/03/13 06:25:25;;;;;;;2.42;0.47;;;9.30;84.40;;;;;;5066399;28;20056;-78
2021/03/13 06:28:08;;;;;;;1.58;0.70;;;9.40;84.00;;;;;;5067964;28;20088;-77
2021/03/13 06:30:37;;;;;;;3.05;0.68;;;9.40;84.00;;;;;;5068945;28;20073;-78
2021/03/13 06:33:26;;;;;;;3.47;0.70;;;9.30;83.80;;;;;;5068880;28;20475;-77
2021/03/13 06:35:54;;;;;;;3.65;0.63;;;9.40;83.60;;;;;;5071382;28;20072;-82
2021/03/13 06:38:23;;;;;;;2.72;0.60;;;9.40;83.00;;;;;;5072222;28;20071;-78
2021/03/13 06:40:52;;;;;;;1.85;0.50;;;9.50;82.90;;;;;;5075993;28;20099;-77
2021/03/13 06:43:28;;;;;;;3.08;0.65;;;9.50;83.10;;;;;;5077965;28;20103;-79
2021/03/13 06:46:06;;;;;;;3.15;0.63;;;9.50;82.80;;;;;;5084820;28;20079;-78
2021/03/13 06:48:39;;;;;;;2.17;0.50;;;9.40;83.00;;;;;;5076081;28;20068;-78
2021/03/13 06:51:30;;;;;;;2.05;0.60;;;9.40;83.10;;;;;;5073760;28;20040;-79
2021/03/13 06:54:10;;;;;;;1.52;0.40;;;9.50;83.10;;;;;;5067440;28;20532;-80
2021/03/13 06:56:41;;;;;;;2.08;0.57;;;9.50;83.10;;;;;;5082446;28;20045;-81
2021/03/13 06:59:31;;;;;;;2.38;0.50;;;9.50;83.40;;;;;;5087944;28;20064;-76
2021/03/13 07:02:03;;;;;;;2.15;0.52;;;9.50;83.10;;;;;;5084659;28;20045;-78
2021/03/13 07:04:33;;;;;;;3.45;0.80;;;9.60;82.90;;;;;;5079168;28;20052;-77
2021/03/13 07:07:00;;;;;;;4.38;1.48;;;9.60;82.20;;;;;;5074892;28;20095;-79
2021/03/13 07:09:52;;;;;;;2.63;0.85;;;9.60;82.20;;;;;;5059546;28;20501;-78
2021/03/13 07:12:40;;;;;;;3.20;0.82;;;9.50;82.40;;;;;;5076023;28;20098;-78
2021/03/13 07:15:18;;;;;;;3.45;1.00;;;9.50;81.90;;;;;;5061738;28;20103;-78
2021/03/13 07:17:49;;;;;;;3.50;0.70;;;9.70;80.70;;;;;;5074305;28;20091;-78
2021/03/13 07:20:18;;;;;;;3.90;0.90;;;9.80;80.50;;;;;;5082074;28;20458;-78
2021/03/13 07:22:50;;;;;;;2.80;0.80;;;9.80;80.40;;;;;;5077808;28;20049;-77
2021/03/13 07:25:21;;;;;;;1.88;0.50;;;9.80;80.00;;;;;;5086426;28;20082;-78
2021/03/13 07:27:54;;;;;;;1.77;0.60;;;9.80;79.70;;;;;;5088789;28;20071;-78
2021/03/13 07:30:22;;;;;;;1.58;0.63;;;9.70;80.30;;;;;;5107838;28;20071;-78
2021/03/13 07:32:52;;;;;;;1.70;0.60;;;9.80;78.90;;;;;;5096275;28;20061;-78
2021/03/13 07:35:22;;;;;;;2.47;0.60;;;9.80;78.60;;;;;;5099459;28;20109;-80
2021/03/13 07:37:54;;;;;;;3.15;0.60;;;9.90;78.40;;;;;;5071630;28;20091;-79
2021/03/13 07:40:23;;;;;;;2.65;0.50;;;9.90;76.90;;;;;;5064723;28;20060;-76
2021/03/13 07:42:51;;;;;;;2.03;0.50;;;10.00;76.70;;;;;;5063605;28;20091;-78
2021/03/13 07:45:20;;;;;;;3.78;0.70;;;10.10;76.90;;;;;;5065419;28;20068;-78
2021/03/13 07:47:46;;;;;;;2.10;0.40;;;10.10;76.10;;;;;;5086334;28;20430;-79
2021/03/13 07:50:16;;;;;;;2.80;0.90;;;10.10;75.90;;;;;;5088046;28;20075;-80
2021/03/13 07:52:44;;;;;;;2.22;0.55;;;10.10;75.60;;;;;;5092192;28;20070;-80
2021/03/13 07:55:15;;;;;;;1.33;0.50;;;10.00;75.00;;;;;;5092239;28;20063;-82
2021/03/13 07:57:44;;;;;;;2.25;0.68;;;10.20;73.80;;;;;;5093353;28;20040;-81
2021/03/13 08:00:14;;;;;;;3.15;0.68;;;10.20;73.70;;;;;;5089688;28;20060;-80
2021/03/13 08:02:43;;;;;;;1.50;0.60;;;10.20;74.00;;;;;;5078975;28;20077;-80
2021/03/13 08:05:15;;;;;;;1.77;0.50;;;10.20;73.90;;;;;;5090526;28;20059;-79
2021/03/13 08:07:59;;;;;;;2.45;0.80;;;10.20;73.80;;;;;;5089222;28;20044;-80
2021/03/13 08:10:47;;;;;;;2.55;0.50;;;10.30;72.90;;;;;;5092315;28;20056;-78
2021/03/13 08:13:56;;;;;;;1.02;0.30;;;10.40;72.40;;;;;;5090346;28;20079;-80
2021/03/13 08:16:39;;;;;;;2.30;0.50;;;10.40;72.00;;;;;;5081847;28;20374;-80
2021/03/13 08:19:32;;;;;;;1.83;0.50;;;10.50;71.50;;;;;;5091750;28;20053;-80
2021/03/13 08:22:20;;;;;;;2.35;0.57;;;10.50;71.10;;;;;;5084077;28;20040;-81
2021/03/13 08:24:50;;;;;;;1.08;0.47;;;10.60;70.90;;;;;;5070866;28;20060;-80
2021/03/13 08:27:39;;;;;;;1.63;0.50;;;10.70;70.30;;;;;;5072031;28;20431;-80
2021/03/13 08:30:25;;;;;;;0.93;0.30;;;10.70;69.80;;;;;;5080696;28;20048;-80
2021/03/13 08:33:03;;;;;;;2.35;0.52;;;10.70;69.80;;;;;;5069824;28;20048;-83
2021/03/13 08:35:51;;;;;;;1.73;0.60;;;10.70;69.20;;;;;;5073072;28;20165;-79
2021/03/13 08:38:53;;;;;;;1.63;0.43;;;10.80;68.80;;;;;;5082820;28;20036;-81
2021/03/13 08:41:47;;;;;;;2.63;0.50;;;10.80;69.00;;;;;;5075349;28;20056;-82
2021/03/13 08:44:15;;;;;;;;;;;10.90;67.20;;;;;;5092010;28;20068;-81
2021/03/13 08:46:47;;;;;;;1.02;0.40;;;11.00;66.00;;;;;;5071825;28;19921;-81
2021/03/13 08:49:45;;;;;;;1.83;0.52;;;11.10;66.40;;;;;;5075802;28;20124;-81
2021/03/13 08:52:26;;;;;;;1.67;0.32;;;11.10;66.10;;;;;;5090591;28;20048;-83
2021/03/13 08:54:54;;;;;;;1.58;0.50;;;11.30;64.60;;;;;;5080418;28;20155;-84
2021/03/13 08:57:44;;;;;;;0.75;0.40;;;11.30;64.30;;;;;;5084794;28;20044;-79
2021/03/13 09:00:17;;;;;;;2.40;0.75;;;11.50;61.70;;;;;;5079113;28;20041;-79
2021/03/13 09:02:47;;;;;;;1.65;0.50;;;11.50;61.60;;;;;;5074353;28;20051;-79
2021/03/13 09:05:19;;;;;;;3.55;0.50;;;11.60;60.60;;;;;;5065511;28;20135;-79
2021/03/13 09:07:47;;;;;;;2.17;0.55;;;11.50;61.10;;;;;;5062607;28;20072;-78
2021/03/13 09:10:15;;;;;;;1.40;0.50;;;11.60;60.20;;;;;;5076642;28;20501;-79
2021/03/13 09:12:44;;;;;;;2.97;0.57;;;11.60;59.90;;;;;;5074679;28;20056;-79
2021/03/13 09:15:12;;;;;;;1.92;0.55;;;11.70;59.20;;;;;;5073217;28;20085;-82
2021/03/13 09:17:39;;;;;;;3.60;0.75;;;11.70;59.10;;;;;;5071697;28;20048;-80
2021/03/13 09:20:08;;;;;;;1.23;0.45;;;11.70;58.20;;;;;;5073349;28;20080;-76
2021/03/13 09:22:39;;;;;;;2.50;0.70;;;11.70;59.00;;;;;;5073449;28;20127;-82
2021/03/13 09:25:10;;;;;;;1.98;0.60;;;11.70;58.80;;;;;;5073390;28;20462;-79
2021/03/13 09:27:37;;;;;;;1.50;0.40;;;11.70;58.40;;;;;;5071687;28;20131;-78
2021/03/13 09:30:10;;;;;;;1.50;0.40;;;11.70;58.70;;;;;;5070508;28;20048;-79
2021/03/13 09:32:43;;;;;;;1.15;0.30;;;11.80;58.40;;;;;;5073831;28;20128;-87
2021/03/13 09:35:11;;;;;;;0.73;0.30;;;11.80;58.40;;;;;;5073607;28;20135;-79
2021/03/13 09:37:41;;;;;;;2.22;0.40;;;11.80;57.90;;;;;;5058896;28;20498;-78
2021/03/13 09:40:12;;;;;;;0.60;0.20;;;11.80;57.60;;;;;;5066039;28;20062;-77
2021/03/13 09:42:40;;;;;;;1.33;0.40;;;11.80;58.00;;;;;;5089133;28;20056;-79
2021/03/13 09:45:10;;;;;;;2.42;0.50;;;11.80;57.60;;;;;;5081261;28;20060;-78
2021/03/13 09:47:39;;;;;;;2.08;0.60;;;11.80;58.30;;;;;;5071925;28;20083;-78
2021/03/13 09:50:09;;;;;;;2.47;0.98;;;11.80;58.50;;;;;;5073040;28;20055;-79
2021/03/13 09:52:39;;;;;;;2.35;0.68;;;11.90;58.80;;;;;;5072500;28;20174;-78
2021/03/13 09:55:10;;;;;;;1.63;0.40;;;11.80;58.40;;;;;;5077056;28;20045;-79
2021/03/13 09:57:38;;;;;;;1.05;0.30;;;11.80;58.60;;;;;;5067930;28;20550;-77
2021/03/13 10:00:10;;;;;;;0.95;0.35;;;11.80;58.80;;;;;;5061305;28;20109;-81
2021/03/13 10:02:39;;;;;;;0.70;0.30;;;11.90;58.80;;;;;;5070174;28;20087;-83
2021/03/13 10:05:07;;;;;;;1.98;0.50;;;12.00;59.00;;;;;;5069473;28;20355;-82
2021/03/13 10:07:39;;;;;;;1.33;0.30;;;12.10;58.70;;;;;;5077115;28;20065;-87
2021/03/13 10:10:08;;;;;;;1.95;0.60;;;12.10;58.50;;;;;;5087652;28;20045;-83
2021/03/13 10:12:37;;;;;;;1.35;0.50;;;12.10;57.80;;;;;;5080450;28;20059;-87
2021/03/13 10:15:24;;;;;;;1.73;0.50;;;12.10;58.10;;;;;;5085515;28;20482;-80
2021/03/13 10:18:04;;;;;;;1.50;0.60;;;12.00;58.30;;;;;;5082139;28;20056;-85
2021/03/13 10:20:34;;;;;;;1.42;0.40;;;12.00;58.90;;;;;;5083561;28;20076;-81
2021/03/13 10:23:11;;;;;;;2.35;0.55;;;12.00;58.80;;;;;;5078333;28;20487;-79
2021/03/13 10:25:40;;;;;;;1.80;0.50;;;11.90;59.00;;;;;;5072315;28;20128;-79
2021/03/13 10:28:09;;;;;;;1.40;0.50;;;11.90;59.20;;;;;;5062958;28;20044;-83
2021/03/13 10:30:37;;;;;;;2.30;0.50;;;12.00;59.20;;;;;;5079546;28;20086;-79
2021/03/13 10:33:05;;;;;;;1.48;0.50;;;11.90;59.10;;;;;;5086618;28;20056;-82
2021/03/13 10:35:33;;;;;;;2.30;0.40;;;12.10;58.80;;;;;;5078594;28;20084;-82
2021/03/13 10:38:02;;;;;;;1.55;0.65;;;12.20;58.70;;;;;;5076986;28;20106;-82
2021/03/13 10:40:43;;;;;;;2.42;0.52;;;12.20;58.90;;;;;;5079455;28;20084;-85
2021/03/13 10:43:21;;;;;;;2.10;0.65;;;12.20;59.00;;;;;;5077573;28;20055;-87
2021/03/13 10:46:08;;;;;;;1.70;0.38;;;12.30;58.60;;;;;;5071537;28;20128;-84
2021/03/13 10:48:36;;;;;;;1.77;0.40;;;12.30;58.40;;;;;;5071181;28;20072;-87
2021/03/13 10:51:04;;;;;;;2.85;0.40;;;12.30;58.10;;;;;;5075247;28;20044;-82
2021/03/13 10:53:34;;;;;;;1.85;0.50;;;12.30;58.00;;;;;;5064919;28;20239;-80
2021/03/13 10:56:08;;;;;;;2.03;0.60;;;12.30;57.80;;;;;;5074786;28;20498;-79
2021/03/13 10:58:37;;;;;;;7.40;3.80;;;12.30;57.70;;;;;;5075668;28;20052;-79
2021/03/13 11:01:06;;;;;;;1.35;0.43;;;12.30;58.00;;;;;;5074462;28;20131;-80
2021/03/13 11:03:34;;;;;;;1.95;0.45;;;12.30;58.10;;;;;;5073867;28;20108;-83
2021/03/13 11:06:01;;;;;;;1.58;0.50;;;12.30;58.20;;;;;;5075358;28;20104;-80
2021/03/13 11:08:28;;;;;;;1.95;0.40;;;12.30;58.30;;;;;;5075187;28;20473;-79
2021/03/13 11:10:57;;;;;;;1.63;0.60;;;12.30;57.60;;;;;;5073151;28;20041;-80
2021/03/13 11:13:25;;;;;;;2.95;0.50;;;12.30;57.30;;;;;;5074014;28;20056;-80
2021/03/13 11:15:52;;;;;;;0.85;0.30;;;12.30;57.60;;;;;;5074803;28;20145;-79
2021/03/13 11:18:19;;;;;;;1.65;0.38;;;12.30;57.00;;;;;;5075374;28;20048;-83
2021/03/13 11:20:47;;;;;;;1.15;0.32;;;12.20;57.20;;;;;;5074644;28;20094;-81
2021/03/13 11:23:15;;;;;;;3.08;0.40;;;12.30;57.50;;;;;;5065275;28;20136;-79
2021/03/13 11:25:41;;;;;;;9.55;3.85;;;12.10;58.40;;;;;;5054807;28;20128;-78
2021/03/13 11:28:08;;;;;;;1.08;0.25;;;12.20;58.00;;;;;;5070157;28;20083;-87
2021/03/13 11:30:39;;;;;;;1.17;0.40;;;12.20;57.80;;;;;;5071974;28;20119;-84
2021/03/13 11:33:07;;;;;;;2.70;0.70;;;12.20;57.80;;;;;;5060206;28;20048;-78
2021/03/13 11:35:33;;;;;;;1.05;0.40;;;12.20;56.90;;;;;;5072301;28;20160;-78
2021/03/13 11:38:00;;;;;;;0.90;0.30;;;12.20;57.00;;;;;;5072207;28;20090;-79
2021/03/13 11:40:27;;;;;;;1.30;0.40;;;12.30;57.00;;;;;;5064627;28;20106;-78
2021/03/13 11:42:55;;;;;;;0.30;0.22;;;12.20;56.90;;;;;;5067149;28;20143;-77
2021/03/13 11:45:24;;;;;;;1.42;0.40;;;12.30;56.60;;;;;;5051960;28;20052;-79
2021/03/13 11:47:55;;;;;;;1.30;0.30;;;12.40;56.20;;;;;;5054130;28;20044;-79
2021/03/13 11:50:24;;;;;;;2.28;0.50;;;12.40;55.90;;;;;;5070552;28;20136;-78
2021/03/13 11:52:54;;;;;;;1.48;0.50;;;12.40;55.80;;;;;;5070747;28;20135;-79
2021/03/13 11:55:22;;;;;;;2.72;0.90;;;12.40;56.00;;;;;;5070901;28;20052;-79
2021/03/13 11:57:49;;;;;;;1.38;0.52;;;12.40;56.00;;;;;;5068987;28;20060;-78
2021/03/13 12:00:17;;;;;;;1.58;0.40;;;12.40;56.50;;;;;;5061194;28;20541;-81
2021/03/13 12:02:44;;;;;;;2.58;0.60;;;12.40;55.70;;;;;;5061069;28;20053;-76
2021/03/13 12:05:13;;;;;;;1.33;0.43;;;12.40;55.50;;;;;;5064052;28;20075;-80
2021/03/13 12:07:41;;;;;;;1.00;0.50;;;12.40;55.70;;;;;;5070211;28;20167;-80
2021/03/13 12:10:10;;;;;;;2.42;0.40;;;12.20;56.40;;;;;;5070506;28;20157;-80
2021/03/13 12:12:38;;;;;;;2.03;0.60;;;12.30;56.30;;;;;;5060657;28;20077;-79
2021/03/13 12:15:07;;;;;;;3.13;0.43;;;12.40;55.60;;;;;;5063803;28;20074;-76
2021/03/13 12:17:34;;;;;;;1.40;0.40;;;12.40;55.80;;;;;;5062279;28;20135;-87
2021/03/13 12:20:01;;;;;;;1.60;0.60;;;12.40;56.10;;;;;;5066462;28;20091;-87
2021/03/13 12:22:29;;;;;;;1.33;0.40;;;12.30;56.10;;;;;;5057266;28;20117;-76
2021/03/13 12:24:56;;;;;;;1.25;0.43;;;12.30;55.80;;;;;;5068483;28;20528;-76
2021/03/13 12:27:22;;;;;;;1.73;0.63;;;12.30;56.30;;;;;;5069857;28;20046;-76
2021/03/13 12:29:50;;;;;;;1.63;0.52;;;12.40;56.20;;;;;;5068994;28;20140;-75
2021/03/13 12:32:18;;;;;;;1.98;0.47;;;12.40;56.20;;;;;;5050664;28;20037;-76
2021/03/13 12:34:46;;;;;;;2.33;0.60;;;12.40;56.40;;;;;;5050568;28;20571;-77
2021/03/13 12:37:13;;;;;;;0.75;0.25;;;12.40;56.90;;;;;;5063217;28;20417;-77
2021/03/13 12:39:41;;;;;;;1.73;0.40;;;12.30;57.20;;;;;;5068031;28;20577;-76
2021/03/13 12:42:09;;;;;;;0.68;0.30;;;12.40;57.00;;;;;;5054398;28;20082;-76
2021/03/13 12:44:36;;;;;;;2.53;0.50;;;12.30;57.00;;;;;;5062643;28;20139;-78
2021/03/13 12:47:03;;;;;;;1.15;0.40;;;12.40;57.00;;;;;;5069634;28;20052;-79
2021/03/13 12:49:29;;;;;;;2.13;0.50;;;12.40;57.40;;;;;;5069670;28;20131;-79
2021/03/13 12:51:56;;;;;;;0.75;0.30;;;12.40;57.50;;;;;;5069414;28;20056;-81
2021/03/13 12:54:23;;;;;;;2.00;0.35;;;12.40;57.80;;;;;;5053975;28;20045;-79
2021/03/13 12:56:51;;;;;;;2.35;0.82;;;12.50;58.10;;;;;;5066154;28;20055;-80
2021/03/13 12:59:18;;;;;;;1.23;0.40;;;12.50;58.20;;;;;;5050442;28;20045;-79
2021/03/13 13:01:45;;;;;;;2.88;1.00;;;12.50;58.60;;;;;;5059556;28;20075;-79
2021/03/13 13:04:11;;;;;;;2.40;1.02;;;12.50;59.10;;;;;;5057284;28;20081;-83
2021/03/13 13:06:38;;;;;;;1.45;0.40;;;12.50;59.60;;;;;;5067498;28;20076;-83
2021/03/13 13:09:06;;;;;;;1.27;0.40;;;12.40;60.30;;;;;;5066178;28;20044;-82